createdAt,value
2022-09-14T00:02:44.053Z,7.72
2022-09-14T00:07:48.519Z,9.57
2022-09-14T00:12:53.052Z,8.55
2022-09-14T00:17:59.324Z,7.80
2022-09-14T00:23:04.907Z,8.25
2022-09-14T00:28:09.965Z,6.95
2022-09-14T00:33:15.562Z,9.43
2022-09-14T00:38:19.476Z,7.07
2022-09-14T00:43:26.234Z,6.72
2022-09-14T00:48:32.439Z,7.10
2022-09-14T00:53:37.751Z,8.35
2022-09-14T00:58:44.509Z,7.55
2022-09-14T01:03:48.557Z,6.28
2022-09-14T01:09:05.096Z,6.47
2022-09-14T01:14:19.292Z,8.80
2022-09-14T01:19:32.916Z,7.10
2022-09-14T01:24:48.541Z,6.90
2022-09-14T01:30:03.562Z,6.20
2022-09-14T01:35:15.925Z,8.82
2022-09-14T01:40:29.330Z,7.55
2022-09-14T01:45:38.662Z,7.43
2022-09-14T01:50:46.493Z,6.45
2022-09-14T01:55:54.819Z,4.78
2022-09-14T02:01:03.421Z,6.03
2022-09-14T02:06:13.099Z,6.40
2022-09-14T02:11:16.455Z,5.95
2022-09-14T02:16:23.322Z,9.48
2022-09-14T02:21:32.468Z,7.28
2022-09-14T02:26:36.916Z,5.22
2022-09-14T02:31:57.459Z,7.57
2022-09-14T02:37:05.440Z,7.10
2022-09-14T02:42:19.934Z,5.90
2022-09-14T02:47:30.460Z,5.50
2022-09-14T02:52:38.885Z,5.63
2022-09-14T02:58:10.704Z,5.55
2022-09-14T03:03:17.154Z,9.20
2022-09-14T03:08:23.813Z,4.55
2022-09-14T03:13:29.984Z,3.80
2022-09-14T03:18:35.497Z,5.32
2022-09-14T03:23:39.952Z,5.40
2022-09-14T03:28:46.405Z,4.57
2022-09-14T03:34:00.086Z,8.48
2022-09-14T03:39:04.651Z,4.18
2022-09-14T03:44:18.298Z,7.65
2022-09-14T03:49:22.967Z,5.70
2022-09-14T03:54:26.475Z,4.90
2022-09-14T03:59:29.989Z,6.13
2022-09-14T04:04:34.413Z,7.93
2022-09-14T04:09:41.003Z,7.90
2022-09-14T04:14:45.090Z,6.50
2022-09-14T04:19:52.128Z,10.27
2022-09-14T04:24:56.932Z,4.82
2022-09-14T04:30:02.865Z,5.53
2022-09-14T04:35:08.530Z,6.05
2022-09-14T04:40:13.566Z,4.90
2022-09-14T04:45:17.743Z,6.55
2022-09-14T04:50:22.870Z,4.78
2022-09-14T04:55:29.069Z,6.45
2022-09-14T05:00:36.207Z,8.40
2022-09-14T05:05:44.815Z,4.88
2022-09-14T05:10:50.534Z,4.00
2022-09-14T05:15:54.289Z,3.92
2022-09-14T05:21:07.593Z,5.15
2022-09-14T05:26:14.720Z,4.50
2022-09-14T05:31:18.078Z,5.88
2022-09-14T05:36:30.452Z,4.00
2022-09-14T05:41:33.918Z,4.97
2022-09-14T05:46:38.784Z,5.25
2022-09-14T05:51:46.440Z,4.07
2022-09-14T05:56:52.941Z,5.88
2022-09-14T06:01:57.589Z,5.85
2022-09-14T06:07:18.310Z,7.47
2022-09-14T06:12:26.199Z,8.35
2022-09-14T06:17:31.583Z,6.22
2022-09-14T06:22:37.701Z,5.53
2022-09-14T06:27:44.480Z,8.55
2022-09-14T06:32:48.891Z,5.38
2022-09-14T06:37:56.355Z,9.63
2022-09-14T06:43:02.558Z,9.52
2022-09-14T06:48:14.681Z,6.88
2022-09-14T06:53:27.375Z,7.03
2022-09-14T06:58:31.985Z,8.02
2022-09-14T07:03:38.592Z,6.10
2022-09-14T07:08:44.745Z,5.85
2022-09-14T07:13:55.189Z,5.88
2022-09-14T07:19:07.986Z,11.07
2022-09-14T07:24:16.561Z,8.68
2022-09-14T07:29:22.123Z,4.63
2022-09-14T07:34:31.377Z,5.60
2022-09-14T07:39:40.014Z,8.50
2022-09-14T07:44:53.989Z,8.52
2022-09-14T07:49:58.786Z,9.85
2022-09-14T07:55:03.563Z,10.80
2022-09-14T08:00:09.236Z,7.70
2022-09-14T08:05:13.118Z,8.02
2022-09-14T08:10:18.012Z,6.93
2022-09-14T08:15:25.156Z,9.00
2022-09-14T08:20:31.024Z,6.05
2022-09-14T08:25:36.060Z,7.50
2022-09-14T08:30:39.821Z,3.83
2022-09-14T08:36:01.364Z,6.72
2022-09-14T08:41:13.536Z,5.28
2022-09-14T08:46:29.778Z,8.55
2022-09-14T08:51:33.345Z,5.97
2022-09-14T08:56:41.912Z,6.00
2022-09-14T09:01:54.976Z,3.28
2022-09-14T09:07:06.208Z,5.47
2022-09-14T09:12:17.690Z,6.80
2022-09-14T09:17:26.470Z,5.97
2022-09-14T09:22:39.825Z,7.38
2022-09-14T09:27:44.635Z,5.30
2022-09-14T09:32:48.803Z,7.78
2022-09-14T09:37:52.436Z,5.72
2022-09-14T09:43:10.805Z,3.33
2022-09-14T09:48:16.780Z,3.72
2022-09-14T09:53:23.922Z,4.78
2022-09-14T09:58:36.919Z,4.07
2022-09-14T10:03:42.278Z,5.55
2022-09-14T10:08:50.806Z,5.05
2022-09-14T10:13:57.143Z,4.63
2022-09-14T10:19:03.075Z,3.70
2022-09-14T10:24:19.970Z,9.18
2022-09-14T10:34:54.132Z,4.95
2022-09-14T10:40:15.995Z,3.42
2022-09-14T10:45:29.922Z,2.83
2022-09-14T10:50:46.653Z,3.83
2022-09-14T10:56:00.205Z,6.10
2022-09-14T11:01:20.366Z,7.85
2022-09-14T11:06:47.112Z,7.10
2022-09-14T11:11:59.017Z,6.18
2022-09-14T11:17:22.538Z,6.97
2022-09-14T11:22:37.300Z,5.07
2022-09-14T11:27:45.947Z,5.90
2022-09-14T11:32:56.152Z,9.30
2022-09-14T11:38:04.759Z,4.72
2022-09-14T11:43:19.721Z,3.30
2022-09-14T11:48:42.764Z,5.85
2022-09-14T11:53:48.531Z,6.10
2022-09-14T11:58:52.338Z,6.25
2022-09-14T12:04:12.356Z,4.32
2022-09-14T12:09:53.497Z,6.30
2022-09-14T12:15:03.726Z,3.80
2022-09-14T12:20:44.974Z,10.02
2022-09-14T12:25:58.540Z,4.93
2022-09-14T12:31:18.396Z,6.10
2022-09-14T12:36:58.629Z,8.98
2022-09-14T12:42:29.172Z,9.43
2022-09-14T12:48:00.725Z,5.70
2022-09-14T12:53:23.109Z,6.05
2022-09-14T12:58:45.642Z,6.50
2022-09-14T13:03:52.231Z,6.35
2022-09-14T13:09:00.170Z,4.35
2022-09-14T13:14:09.000Z,4.75
2022-09-14T13:19:26.965Z,5.50
2022-09-14T13:24:34.875Z,5.47
2022-09-14T13:29:41.557Z,6.85
2022-09-14T13:34:50.739Z,5.85
2022-09-14T13:39:58.949Z,10.40
2022-09-14T13:45:08.490Z,6.18
2022-09-14T13:50:16.364Z,4.50
2022-09-14T13:55:25.772Z,3.45
2022-09-14T14:00:36.591Z,5.30
2022-09-14T14:05:43.986Z,7.25
2022-09-14T14:10:56.632Z,3.90
2022-09-14T14:16:21.810Z,7.07
2022-09-14T14:21:29.584Z,7.63
2022-09-14T14:26:38.107Z,6.13
2022-09-14T14:31:45.111Z,4.82
2022-09-14T14:36:53.434Z,5.88
2022-09-14T14:42:04.284Z,4.70
2022-09-14T14:47:16.929Z,10.20
2022-09-14T14:52:20.382Z,5.40
2022-09-14T14:57:25.029Z,4.60
2022-09-14T15:02:33.032Z,7.30
2022-09-14T15:07:39.512Z,7.72
2022-09-14T15:12:44.971Z,5.40
2022-09-14T15:17:53.329Z,4.07
2022-09-14T15:22:57.317Z,4.82
2022-09-14T15:28:01.687Z,7.50
2022-09-14T15:33:06.631Z,5.35
2022-09-14T15:38:19.212Z,7.82
2022-09-14T15:43:33.070Z,5.53
2022-09-14T15:48:40.845Z,5.88
2022-09-14T15:53:48.090Z,6.57
2022-09-14T15:58:51.962Z,3.97
2022-09-14T16:04:09.659Z,8.30
2022-09-14T16:09:16.398Z,7.85
2022-09-14T16:14:21.415Z,5.43
2022-09-14T16:19:26.875Z,5.25
2022-09-14T16:24:31.281Z,7.05
2022-09-14T16:46:13.123Z,6.53
2022-09-14T16:51:21.054Z,5.10
2022-09-14T16:56:26.120Z,4.55
2022-09-14T17:07:01.556Z,5.60
2022-09-14T17:12:05.081Z,5.40
2022-09-14T17:17:08.031Z,5.60
2022-09-14T17:22:13.295Z,4.50
2022-09-14T17:27:17.326Z,4.88
2022-09-14T17:32:20.413Z,4.97
2022-09-14T17:37:24.919Z,6.32
2022-09-14T17:42:28.422Z,5.85
2022-09-14T17:47:31.826Z,6.30
2022-09-14T17:52:37.048Z,8.52
2022-09-14T17:57:40.291Z,5.20
2022-09-14T18:02:43.534Z,6.38
2022-09-14T18:07:49.528Z,4.00
2022-09-14T18:12:53.157Z,6.57
2022-09-14T18:17:56.357Z,7.10
2022-09-14T18:23:00.916Z,7.82
2022-09-14T18:28:04.209Z,6.95
2022-09-14T18:33:07.345Z,8.13
2022-09-14T18:38:13.513Z,5.00
2022-09-14T18:43:17.284Z,5.32
2022-09-14T18:48:20.564Z,5.45
2022-09-14T18:53:24.934Z,5.85
2022-09-14T18:58:28.100Z,6.75
2022-09-14T19:03:31.855Z,5.82
2022-09-14T19:08:36.887Z,6.47
2022-09-14T19:13:40.262Z,5.82
2022-09-14T19:18:44.557Z,7.35
2022-09-14T19:23:49.252Z,5.85
2022-09-14T19:28:53.067Z,5.28
2022-09-14T19:33:56.101Z,7.55
2022-09-14T19:39:02.613Z,9.18
2022-09-14T19:44:06.854Z,6.88
2022-09-14T19:49:15.030Z,7.45
2022-09-14T19:54:19.650Z,4.93
2022-09-14T19:59:22.681Z,8.00
2022-09-14T20:04:25.723Z,5.07
2022-09-14T20:09:30.106Z,5.72
2022-09-14T20:14:33.143Z,4.90
2022-09-14T20:19:36.649Z,3.97
2022-09-14T20:24:41.152Z,8.82
2022-09-14T20:29:44.069Z,6.50
2022-09-14T20:34:47.092Z,5.03
2022-09-14T20:39:51.596Z,10.35
2022-09-14T20:44:54.898Z,9.32
2022-09-14T20:49:58.215Z,10.40
2022-09-14T20:55:02.664Z,12.38
2022-09-14T21:00:06.654Z,5.10
2022-09-14T21:05:10.376Z,6.20
2022-09-14T21:10:14.832Z,7.38
2022-09-14T21:15:18.205Z,7.47
2022-09-14T21:20:21.451Z,11.35
2022-09-14T21:25:25.889Z,14.90
2022-09-14T21:30:28.932Z,11.85
2022-09-14T21:35:33.726Z,12.70
2022-09-14T21:40:38.236Z,12.32
2022-09-14T21:45:46.153Z,14.23
2022-09-14T21:50:49.757Z,11.90
2022-09-14T21:55:54.118Z,12.60
2022-09-14T22:00:58.875Z,14.43
2022-09-14T22:06:03.466Z,13.57
2022-09-14T22:11:09.470Z,13.90
2022-09-14T22:16:18.183Z,10.38
2022-09-14T22:21:22.513Z,10.57
2022-09-14T22:26:28.696Z,7.82
2022-09-14T22:31:33.870Z,16.83
2022-09-14T22:36:37.131Z,10.20
2022-09-14T22:41:41.949Z,10.10
2022-09-14T22:46:45.020Z,10.85
2022-09-14T22:51:48.020Z,10.05
2022-09-14T22:56:52.398Z,10.43
2022-09-14T23:01:55.481Z,12.73
2022-09-14T23:07:00.914Z,14.00
2022-09-14T23:12:05.569Z,9.55
2022-09-14T23:17:08.707Z,12.13
2022-09-14T23:22:12.233Z,16.48
2022-09-14T23:27:16.779Z,10.07
2022-09-14T23:32:19.859Z,14.52
2022-09-14T23:37:22.994Z,13.60
2022-09-14T23:42:27.374Z,10.77
2022-09-14T23:47:30.541Z,11.40
2022-09-14T23:52:33.692Z,16.67
2022-09-14T23:57:49.215Z,14.95
